Terminal Aerodrome Forecast
Issued by NWS Knoxville/Tri Cities, TN

Home | Current Version | Previous Version | Text Only | Print | Product List | Glossary On
Versions: 1 2 3 4 5 6 7 8 9 10 11 12 13 14 15
000
FTUS44 KMRX 270525
TAFTRI
TAF
KTRI 270525Z 2706/2806 00000KT 6SM BR VCSH SCT010 OVC025
      TEMPO 2706/2707 5SM -RA BR BKN010
     FM270900 34002KT 2SM BR VCSH OVC020
     FM271600 30005KT P6SM BKN035
     FM272100 28005KT P6SM BKN250
     FM280000 28003KT P6SM SKC=

USA.gov is the U.S. government's official web portal to all federal, state and local government web resources and services.